ADDS METAR Data INFO
IDs: Format: Raw Decoded Include TAF

Data at: 1142 UTC 17 Jul 2018

KPSO 171135Z AUTO 00000KT 10SM CLR 12/11 A3045 RMK AO2 T01210114
KPSO 171115Z AUTO 00000KT 10SM CLR 13/12 A3046 RMK AO2 T01300121
KPSO 171055Z AUTO 00000KT 10SM CLR 13/12 A3045 RMK AO2 T01310123
KPSO 171035Z AUTO 00000KT 10SM CLR 14/13 A3044 RMK AO2 T01350125
KPSO 171015Z AUTO 00000KT 10SM CLR 14/13 A3044 RMK AO2 T01350126
KPSO 170955Z AUTO 36003KT 10SM CLR 14/13 A3045 RMK AO2 T01360127
KPSO 170935Z AUTO 33003KT 10SM CLR 14/13 A3046 RMK AO2 T01360130
KPSO 170915Z AUTO 36003KT 10SM CLR 14/13 A3044 RMK AO2 T01400127
KPSO 170855Z AUTO 14004KT 10SM CLR 14/13 A3045 RMK AO2 T01420127
KPSO 170835Z AUTO 00000KT 10SM SCT120 15/13 A3044 RMK AO2 T01460127
KPSO 170815Z AUTO 00000KT 10SM BKN120 15/13 A3044 RMK AO2 T01480132
KPSO 170755Z AUTO 15003KT 10SM OVC110 15/13 A3044 RMK AO2 T01500132
KPSO 170735Z AUTO 17005KT 10SM BKN120 15/13 A3044 RMK AO2 T01500134
KPSO 170715Z AUTO 00000KT 10SM SCT100 15/14 A3045 RMK AO2 T01500135
KPSO 170655Z AUTO 00000KT 10SM SCT100 SCT110 15/13 A3046 RMK AO2 T01520134
KPSO 170635Z AUTO 00000KT 10SM -RA SCT090 BKN110 16/13 A3046 RMK AO2 T01560132
KPSO 170615Z AUTO 31007KT 10SM OVC090 16/13 A3046 RMK AO2 LTG DSNT N T01620125
KPSO 170555Z AUTO 31003KT 10SM SCT090 15/13 A3046 RMK AO2 LTG DSNT SE T01530134 10170 20150 402760128
KPSO 170535Z AUTO 29003KT 10SM BKN090 SCT120 15/14 A3046 RMK AO2 T01500136
KPSO 170515Z AUTO 07003KT 10SM BKN100 OVC120 15/14 A3046 RMK AO2 T01520139
KPSO 170455Z AUTO 30004KT 10SM OVC110 16/14 A3046 RMK AO2 T01560136
KPSO 170435Z AUTO 00000KT 10SM BKN120 16/14 A3046 RMK AO2 T01550140
KPSO 170415Z AUTO 28004KT 10SM SCT120 15/14 A3046 RMK AO2 T01530140
KPSO 170355Z AUTO 00000KT 10SM SCT095 SCT120 16/15 A3046 RMK AO2 T01550145
KPSO 170335Z AUTO 00000KT 10SM SCT120 16/15 A3046 RMK AO2 T01580145
KPSO 170315Z AUTO 00000KT 10SM SCT055 BKN100 BKN120 16/15 A3045 RMK AO2 T01560146
KPSO 170255Z AUTO 07003KT 10SM -DZ SCT050 BKN100 OVC120 16/15 A3044 RMK AO2 T01580148
KPSO 170235Z AUTO 04005KT 10SM RA SCT050 SCT100 BKN120 16/15 A3044 RMK AO2 T01600148
KPSO 170215Z AUTO 04004KT 10SM BKN042 BKN100 16/14 A3044 RMK AO2 LTG DSNT NE THRU SE T01610144
KPSO 170155Z AUTO 01005KT 10SM TS SCT039 BKN046 OVC110 17/15 A3044 RMK AO2 LTG DSNT NE AND SE T01680146
KPSO 170135Z AUTO 00000KT 10SM -VCTSDZ SCT037 OVC100 17/15 A3043 RMK AO2 LTG DSNT NE AND E T01650145
KPSO 170115Z AUTO 00000KT 10SM -TSDZ OVC100 16/15 A3042 RMK AO2 LTG DSNT NE AND E T01600145
KPSO 170055Z AUTO 30005KT 10SM -RA SCT042 OVC090 16/15 A3040 RMK AO2 LTG DSNT E THRU S T01610145
KPSO 170035Z AUTO 27003KT 10SM -TSRA SCT037 SCT042 OVC080 16/14 A3039 RMK AO2 LTG DSNT S T01610137
KPSO 170015Z AUTO 33003KT 10SM -RA OVC080 16/14 A3040 RMK AO2 LTG DSNT S T01600138
KPSO 162355Z AUTO 27004KT 10SM -TSRA OVC090 17/12 A3040 RMK AO2 LTG DSNT N THRU S T01680123 10276 20168
KPSO 162335Z AUTO 27004G14KT 10SM -RA OVC090 18/10 A3039 RMK AO2 LTG DSNT NE THRU S T01790097
KPSO 162315Z AUTO 30012G16KT 10SM -VCTSDZ OVC100 18/10 A3038 RMK AO2 LTG DSNT S T01800095
KPSO 162255Z AUTO 29009G20KT 10SM -VCTSRA OVC110 18/10 A3038 RMK AO2 LTG DSNT S AND NW T01810095
KPSO 162235Z AUTO 30011KT 10SM OVC100 19/10 A3037 RMK AO2 LTG DSNT S THRU W T01910096
KPSO 162215Z AUTO 30008KT 10SM VCTS BKN100 BKN120 20/09 A3037 RMK AO2 LTG DSNT ALQS T02020092
KPSO 162155Z AUTO 04007KT 7SM TS SCT110 20/09 A3036 RMK AO2 LTG DSNT ALQS T02030093
KPSO 162135Z AUTO 04010KT 10SM TS SCT110 20/10 A3037 RMK AO2 LTG DSNT E THRU W T02030099
KPSO 162115Z AUTO 03013G16KT 10SM TS SCT090 SCT120 21/10 A3037 RMK AO2 LTG DSNT ALQS T02110100
KPSO 162055Z AUTO 04012G18KT 10SM VCTSRA BKN090 BKN120 22/08 A3036 RMK AO2 LTG DSNT ALQS T02210075
KPSO 162035Z AUTO 04011G22KT 10SM TS SCT080 BKN090 BKN120 24/06 A3036 RMK AO2 LTG DSNT W THRU NE T02420061
KPSO 162015Z AUTO 08011G18KT 10SM TS SCT070 BKN080 BKN110 26/07 A3035 RMK AO2 LTG DSNT ALQS T02620071
KPSO 161955Z AUTO 12007G14KT 080V150 10SM VCTS SCT085 BKN100 27/06 A3034 RMK AO2 LTG DSNT ALQS T02730063
KPSO 161935Z AUTO 00000KT 10SM TS SCT100 26/07 A3035 RMK AO2 LTG DSNT ALQS T02620065
KPSO 161915Z AUTO 15007KT 10SM CLR 26/07 A3036 RMK AO2 LTG DSNT E THRU W T02620070
KPSO 161855Z AUTO 29003KT 10SM CLR 25/07 A3036 RMK AO2 LTG DSNT N THRU SE T02520072
KPSO 161835Z AUTO 24004KT 10SM CLR 25/07 A3038 RMK AO2 LTG DSNT SE AND S T02480072
KPSO 161815Z AUTO 18007KT 10SM CLR 24/08 A3038 RMK AO2 LTG DSNT E T02420077
KPSO 161755Z AUTO 16004KT 10SM CLR 24/08 A3040 RMK AO2 T02370077 10239 20139
KPSO 161735Z AUTO 00000KT 10SM CLR 23/08 A3040 RMK AO2 T02320084
KPSO 161715Z AUTO 00000KT 10SM CLR 23/08 A3040 RMK AO2 LTG DSNT E T02270079
KPSO 161655Z AUTO 19003KT 10SM CLR 22/08 A3041 RMK AO2 T02200079
KPSO 161635Z AUTO 00000KT 10SM CLR 22/08 A3041 RMK AO2 T02170076
KPSO 161615Z AUTO 00000KT 10SM CLR 21/08 A3042 RMK AO2 T02130082
KPSO 161555Z AUTO 17004KT 10SM CLR 21/10 A3043 RMK AO2 T02110097
KPSO 161535Z AUTO 00000KT 10SM CLR 20/09 A3043 RMK AO2 T02020085
KPSO 161515Z AUTO 00000KT 10SM CLR 18/11 A3044 RMK AO2 T01820113
KPSO 161455Z AUTO 00000KT 10SM TS SCT060 SCT080 17/11 A3044 RMK AO2 T01660109
KPSO 161435Z AUTO 00000KT 10SM SCT060 16/11 A3044 RMK AO2 T01600109
KPSO 161415Z AUTO 00000KT 10SM BKN060 OVC075 16/12 A3043 RMK AO2 T01550116
KPSO 161355Z AUTO 00000KT 10SM BKN060 OVC075 15/12 A3043 RMK AO2 T01460119
KPSO 161335Z AUTO 00000KT 10SM OVC060 15/11 A3043 RMK AO2 T01490106
KPSO 161315Z AUTO 00000KT 10SM OVC060 15/13 A3042 RMK AO2 T01500126
KPSO 161255Z AUTO 00000KT 10SM BKN060 14/12 A3042 RMK AO2 T01420124
KPSO 161235Z AUTO 00000KT 10SM SCT095 14/13 A3042 RMK AO2 T01390125
KPSO 161215Z AUTO 00000KT 10SM SCT095 14/12 A3041 RMK AO2 T01440119
KPSO 161155Z AUTO 00000KT 10SM SCT080 OVC095 14/12 A3041 RMK AO2 T01410123 10159 20128
KPSO 161135Z AUTO 00000KT 10SM SCT070 OVC095 14/12 A3041 RMK AO2 T01420115
KPSO 161115Z AUTO 00000KT 10SM SCT070 OVC095 14/12 A3041 RMK AO2 T01440118
KPSO 161055Z AUTO 00000KT 10SM BKN070 OVC085 14/12 A3040 RMK AO2 T01400120
KPSO 161035Z AUTO 00000KT 10SM BKN070 OVC085 14/12 A3040 RMK AO2 T01400118
KPSO 161015Z AUTO 00000KT 10SM SCT070 OVC085 14/12 A3040 RMK AO2 T01370122
KPSO 160955Z AUTO 00000KT 10SM OVC085 14/12 A3039 RMK AO2 T01370122
KPSO 160935Z AUTO 00000KT 10SM OVC095 14/13 A3039 RMK AO2 T01380125
KPSO 160915Z AUTO 00000KT 10SM BKN095 BKN120 13/12 A3039 RMK AO2 T01300116
KPSO 160855Z AUTO 00000KT 10SM SCT095 14/11 A3038 RMK AO2 T01360112
KPSO 160835Z AUTO 00000KT 10SM CLR 13/12 A3038 RMK AO2 T01320116
KPSO 160815Z AUTO 07003KT 10SM CLR 14/12 A3038 RMK AO2 T01400121
KPSO 160755Z AUTO 00000KT 10SM SCT120 15/11 A3038 RMK AO2 T01490113
KPSO 160735Z AUTO 00000KT 10SM SCT090 BKN120 15/11 A3039 RMK AO2 T01540109
KPSO 160715Z AUTO 00000KT 10SM SCT120 15/12 A3039 RMK AO2 T01500122
KPSO 160655Z AUTO 28003KT 10SM SCT120 14/13 A3039 RMK AO2 T01430133
KPSO 160635Z AUTO 27003KT 10SM SCT120 15/13 A3039 RMK AO2 T01480133
KPSO 160615Z AUTO 00000KT 10SM SCT100 BKN120 16/14 A3040 RMK AO2 T01580136
KPSO 160555Z AUTO 00000KT 10SM OVC110 15/14 A3040 RMK AO2 T01530140 10167 20151 402710120
KPSO 160535Z AUTO 00000KT 10SM OVC110 16/13 A3040 RMK AO2 T01580133
KPSO 160515Z AUTO 20005KT 10SM OVC110 16/12 A3040 RMK AO2 T01630123
KPSO 160455Z AUTO 36004KT 10SM OVC110 16/11 A3039 RMK AO2 T01610105
KPSO 160435Z AUTO 31006KT 10SM OVC110 15/13 A3039 RMK AO2 T01540130
KPSO 160415Z AUTO 00000KT 10SM BKN110 16/12 A3040 RMK AO2 T01610119
KPSO 160355Z AUTO 36003KT 10SM SCT100 BKN120 16/12 A3040 RMK AO2 T01600118
KPSO 160335Z AUTO 02003KT 10SM OVC110 16/13 A3039 RMK AO2 T01580132
KPSO 160315Z AUTO 02003KT 10SM SCT075 SCT090 OVC110 16/13 A3040 RMK AO2 T01560126
KPSO 160255Z AUTO 02005KT 10SM -RA OVC100 15/13 A3040 RMK AO2 T01510132
KPSO 160235Z AUTO 01004KT 10SM -RA OVC100 15/13 A3040 RMK AO2 LTG DSNT S T01520130
KPSO 160215Z AUTO 03003KT 10SM -RA SCT038 BKN085 OVC100 15/14 A3040 RMK AO2 LTG DSNT S T01510135
KPSO 160155Z AUTO 02005KT 7SM RA SCT040 SCT049 OVC085 16/14 A3040 RMK AO2 T01560135
KPSO 160135Z AUTO 04004KT 10SM -RA SCT050 SCT075 OVC085 16/14 A3040 RMK AO2 T01610135
KPSO 160115Z AUTO 03007KT 10SM -RA SCT037 BKN080 OVC085 16/12 A3039 RMK AO2 T01610124
KPSO 160055Z AUTO 02005KT 10SM RA SCT041 BKN060 OVC090 16/13 A3038 RMK AO2 T01610133
KPSO 160035Z AUTO 34003KT 10SM SCT070 SCT075 OVC090 16/14 A3038 RMK AO2 T01630144
KPSO 160015Z AUTO 00000KT 10SM OVC100 16/14 A3038 RMK AO2 T01600143
KPSO 152355Z AUTO 15005KT 10SM -VCTSRA SCT039 SCT065 OVC080 16/14 A3038 RMK AO2 T01620140 10265 20153